sensor_id;sensor_type;location;lat;lon;timestamp;P1;durP1;ratioP1;P2;durP2;ratioP2
81864;SDS011;71313;43.514;1.500;2023-07-13T00:00:44;2.08;;;1.20;;
81864;SDS011;71313;43.514;1.500;2023-07-13T00:03:10;2.58;;;1.52;;
81864;SDS011;71313;43.514;1.500;2023-07-13T00:05:38;2.08;;;1.35;;
81864;SDS011;71313;43.514;1.500;2023-07-13T00:08:05;2.05;;;1.40;;
81864;SDS011;71313;43.514;1.500;2023-07-13T00:10:30;2.40;;;1.60;;
81864;SDS011;71313;43.514;1.500;2023-07-13T00:12:56;2.72;;;1.60;;
81864;SDS011;71313;43.514;1.500;2023-07-13T00:15:23;2.60;;;1.52;;
81864;SDS011;71313;43.514;1.500;2023-07-13T00:17:55;2.60;;;1.60;;
81864;SDS011;71313;43.514;1.500;2023-07-13T00:20:21;2.17;;;1.65;;
81864;SDS011;71313;43.514;1.500;2023-07-13T00:22:50;2.47;;;1.38;;
81864;SDS011;71313;43.514;1.500;2023-07-13T00:25:17;2.92;;;1.67;;
81864;SDS011;71313;43.514;1.500;2023-07-13T00:27:43;2.22;;;1.48;;
81864;SDS011;71313;43.514;1.500;2023-07-13T00:30:09;1.73;;;1.35;;
81864;SDS011;71313;43.514;1.500;2023-07-13T00:32:35;2.42;;;1.50;;
81864;SDS011;71313;43.514;1.500;2023-07-13T00:35:01;2.35;;;1.40;;
81864;SDS011;71313;43.514;1.500;2023-07-13T00:37:28;2.63;;;1.50;;
81864;SDS011;71313;43.514;1.500;2023-07-13T00:39:54;2.15;;;1.60;;
81864;SDS011;71313;43.514;1.500;2023-07-13T00:42:19;2.72;;;1.48;;
81864;SDS011;71313;43.514;1.500;2023-07-13T00:45:05;2.13;;;1.38;;
81864;SDS011;71313;43.514;1.500;2023-07-13T00:47:31;2.35;;;1.40;;
81864;SDS011;71313;43.514;1.500;2023-07-13T00:49:57;2.50;;;1.30;;
81864;SDS011;71313;43.514;1.500;2023-07-13T00:52:22;2.08;;;1.38;;
81864;SDS011;71313;43.514;1.500;2023-07-13T00:54:48;2.42;;;1.40;;
81864;SDS011;71313;43.514;1.500;2023-07-13T00:57:15;3.47;;;1.40;;
81864;SDS011;71313;43.514;1.500;2023-07-13T00:59:43;2.50;;;1.48;;
81864;SDS011;71313;43.514;1.500;2023-07-13T01:02:12;2.80;;;1.30;;
81864;SDS011;71313;43.514;1.500;2023-07-13T01:04:38;2.40;;;1.60;;
81864;SDS011;71313;43.514;1.500;2023-07-13T01:07:03;2.00;;;1.30;;
81864;SDS011;71313;43.514;1.500;2023-07-13T01:09:31;1.95;;;1.45;;
81864;SDS011;71313;43.514;1.500;2023-07-13T01:11:56;2.20;;;1.40;;
81864;SDS011;71313;43.514;1.500;2023-07-13T01:14:22;2.25;;;1.33;;
81864;SDS011;71313;43.514;1.500;2023-07-13T01:16:49;2.45;;;1.48;;
81864;SDS011;71313;43.514;1.500;2023-07-13T01:19:37;1.65;;;1.30;;
81864;SDS011;71313;43.514;1.500;2023-07-13T01:22:01;2.38;;;1.45;;
81864;SDS011;71313;43.514;1.500;2023-07-13T01:24:28;1.80;;;1.30;;
81864;SDS011;71313;43.514;1.500;2023-07-13T01:26:54;2.00;;;1.40;;
81864;SDS011;71313;43.514;1.500;2023-07-13T01:29:20;2.58;;;1.40;;
81864;SDS011;71313;43.514;1.500;2023-07-13T01:31:46;2.22;;;1.50;;
81864;SDS011;71313;43.514;1.500;2023-07-13T01:34:12;2.65;;;1.63;;
81864;SDS011;71313;43.514;1.500;2023-07-13T01:36:38;1.60;;;1.23;;
81864;SDS011;71313;43.514;1.500;2023-07-13T01:39:03;2.38;;;1.42;;
81864;SDS011;71313;43.514;1.500;2023-07-13T01:41:29;2.35;;;1.60;;
81864;SDS011;71313;43.514;1.500;2023-07-13T01:43:55;2.55;;;1.52;;
81864;SDS011;71313;43.514;1.500;2023-07-13T01:46:20;2.05;;;1.50;;
81864;SDS011;71313;43.514;1.500;2023-07-13T01:48:46;2.60;;;1.55;;
81864;SDS011;71313;43.514;1.500;2023-07-13T01:51:11;2.83;;;1.50;;
81864;SDS011;71313;43.514;1.500;2023-07-13T01:53:38;2.45;;;1.60;;
81864;SDS011;71313;43.514;1.500;2023-07-13T01:56:04;2.30;;;1.30;;
81864;SDS011;71313;43.514;1.500;2023-07-13T01:58:29;2.55;;;1.35;;
81864;SDS011;71313;43.514;1.500;2023-07-13T02:00:55;3.28;;;1.40;;
81864;SDS011;71313;43.514;1.500;2023-07-13T02:03:20;2.55;;;1.48;;
81864;SDS011;71313;43.514;1.500;2023-07-13T02:05:46;2.70;;;1.50;;
81864;SDS011;71313;43.514;1.500;2023-07-13T02:08:11;2.63;;;1.73;;
81864;SDS011;71313;43.514;1.500;2023-07-13T02:10:37;2.15;;;1.23;;
81864;SDS011;71313;43.514;1.500;2023-07-13T02:13:04;2.40;;;1.27;;
81864;SDS011;71313;43.514;1.500;2023-07-13T02:15:31;2.38;;;1.42;;
81864;SDS011;71313;43.514;1.500;2023-07-13T02:17:56;2.33;;;1.50;;
81864;SDS011;71313;43.514;1.500;2023-07-13T02:20:23;3.03;;;1.40;;
81864;SDS011;71313;43.514;1.500;2023-07-13T02:22:49;2.28;;;1.30;;
81864;SDS011;71313;43.514;1.500;2023-07-13T02:25:15;2.33;;;1.48;;
81864;SDS011;71313;43.514;1.500;2023-07-13T02:27:41;2.10;;;1.30;;
81864;SDS011;71313;43.514;1.500;2023-07-13T02:30:06;2.55;;;1.60;;
81864;SDS011;71313;43.514;1.500;2023-07-13T02:32:32;2.70;;;1.40;;
81864;SDS011;71313;43.514;1.500;2023-07-13T02:34:58;2.13;;;1.25;;
81864;SDS011;71313;43.514;1.500;2023-07-13T02:37:24;1.60;;;1.30;;
81864;SDS011;71313;43.514;1.500;2023-07-13T02:39:50;2.97;;;1.70;;
81864;SDS011;71313;43.514;1.500;2023-07-13T02:42:15;2.33;;;1.50;;
81864;SDS011;71313;43.514;1.500;2023-07-13T02:44:41;3.58;;;1.50;;
81864;SDS011;71313;43.514;1.500;2023-07-13T02:47:06;2.92;;;1.52;;
81864;SDS011;71313;43.514;1.500;2023-07-13T02:49:32;2.85;;;1.70;;
81864;SDS011;71313;43.514;1.500;2023-07-13T02:51:57;2.45;;;1.60;;
81864;SDS011;71313;43.514;1.500;2023-07-13T02:54:23;2.05;;;1.38;;
81864;SDS011;71313;43.514;1.500;2023-07-13T02:56:49;2.15;;;1.40;;
81864;SDS011;71313;43.514;1.500;2023-07-13T02:59:14;4.03;;;1.50;;
81864;SDS011;71313;43.514;1.500;2023-07-13T03:01:40;1.95;;;1.38;;
81864;SDS011;71313;43.514;1.500;2023-07-13T03:04:06;2.10;;;1.42;;
81864;SDS011;71313;43.514;1.500;2023-07-13T03:06:32;2.75;;;1.40;;
81864;SDS011;71313;43.514;1.500;2023-07-13T03:08:58;2.33;;;1.42;;
81864;SDS011;71313;43.514;1.500;2023-07-13T03:11:25;2.05;;;1.48;;
81864;SDS011;71313;43.514;1.500;2023-07-13T03:13:51;2.65;;;1.60;;
81864;SDS011;71313;43.514;1.500;2023-07-13T03:16:17;2.58;;;1.50;;
81864;SDS011;71313;43.514;1.500;2023-07-13T03:18:43;4.15;;;1.42;;
81864;SDS011;71313;43.514;1.500;2023-07-13T03:21:09;2.35;;;1.30;;
81864;SDS011;71313;43.514;1.500;2023-07-13T03:23:35;5.72;;;1.50;;
81864;SDS011;71313;43.514;1.500;2023-07-13T03:26:02;2.60;;;1.52;;
81864;SDS011;71313;43.514;1.500;2023-07-13T03:28:27;3.13;;;1.40;;
81864;SDS011;71313;43.514;1.500;2023-07-13T03:31:27;2.30;;;1.50;;
81864;SDS011;71313;43.514;1.500;2023-07-13T03:33:47;2.40;;;1.40;;
81864;SDS011;71313;43.514;1.500;2023-07-13T03:36:17;3.85;;;1.40;;
81864;SDS011;71313;43.514;1.500;2023-07-13T03:38:46;2.55;;;1.20;;
81864;SDS011;71313;43.514;1.500;2023-07-13T03:41:13;2.00;;;1.40;;
81864;SDS011;71313;43.514;1.500;2023-07-13T03:43:39;3.50;;;1.38;;
81864;SDS011;71313;43.514;1.500;2023-07-13T03:46:04;2.80;;;1.30;;
81864;SDS011;71313;43.514;1.500;2023-07-13T03:48:30;3.40;;;1.40;;
81864;SDS011;71313;43.514;1.500;2023-07-13T03:50:55;2.33;;;1.40;;
81864;SDS011;71313;43.514;1.500;2023-07-13T03:53:21;2.13;;;1.35;;
81864;SDS011;71313;43.514;1.500;2023-07-13T03:55:46;3.05;;;1.40;;
81864;SDS011;71313;43.514;1.500;2023-07-13T03:58:26;2.45;;;1.40;;
81864;SDS011;71313;43.514;1.500;2023-07-13T04:00:56;2.35;;;1.38;;
81864;SDS011;71313;43.514;1.500;2023-07-13T04:03:23;3.33;;;1.60;;
81864;SDS011;71313;43.514;1.500;2023-07-13T04:05:49;3.13;;;1.50;;
81864;SDS011;71313;43.514;1.500;2023-07-13T04:08:15;3.03;;;1.45;;
81864;SDS011;71313;43.514;1.500;2023-07-13T04:10:42;3.72;;;1.30;;
81864;SDS011;71313;43.514;1.500;2023-07-13T04:13:08;3.80;;;1.40;;
81864;SDS011;71313;43.514;1.500;2023-07-13T04:15:34;3.90;;;1.40;;
81864;SDS011;71313;43.514;1.500;2023-07-13T04:17:59;3.42;;;1.40;;
81864;SDS011;71313;43.514;1.500;2023-07-13T04:20:25;3.90;;;1.30;;
81864;SDS011;71313;43.514;1.500;2023-07-13T04:22:51;3.55;;;1.40;;
81864;SDS011;71313;43.514;1.500;2023-07-13T04:25:18;3.22;;;1.50;;
81864;SDS011;71313;43.514;1.500;2023-07-13T04:27:45;3.00;;;1.25;;
81864;SDS011;71313;43.514;1.500;2023-07-13T04:30:11;3.47;;;1.42;;
81864;SDS011;71313;43.514;1.500;2023-07-13T04:32:36;2.83;;;1.60;;
81864;SDS011;71313;43.514;1.500;2023-07-13T04:35:02;3.20;;;1.35;;
81864;SDS011;71313;43.514;1.500;2023-07-13T04:37:28;2.85;;;1.10;;
81864;SDS011;71313;43.514;1.500;2023-07-13T04:39:54;3.70;;;1.40;;
81864;SDS011;71313;43.514;1.500;2023-07-13T04:42:19;3.88;;;1.10;;
81864;SDS011;71313;43.514;1.500;2023-07-13T04:44:49;2.88;;;1.42;;
81864;SDS011;71313;43.514;1.500;2023-07-13T04:47:15;2.33;;;1.38;;
81864;SDS011;71313;43.514;1.500;2023-07-13T04:49:40;3.20;;;1.60;;
81864;SDS011;71313;43.514;1.500;2023-07-13T04:52:06;3.30;;;1.42;;
81864;SDS011;71313;43.514;1.500;2023-07-13T04:54:32;2.58;;;1.30;;
81864;SDS011;71313;43.514;1.500;2023-07-13T04:57:02;2.65;;;1.23;;
81864;SDS011;71313;43.514;1.500;2023-07-13T04:59:29;3.03;;;1.30;;
81864;SDS011;71313;43.514;1.500;2023-07-13T05:01:55;3.10;;;1.42;;
81864;SDS011;71313;43.514;1.500;2023-07-13T05:04:20;3.22;;;1.60;;
81864;SDS011;71313;43.514;1.500;2023-07-13T05:06:46;4.28;;;1.48;;
81864;SDS011;71313;43.514;1.500;2023-07-13T05:09:11;3.58;;;1.40;;
81864;SDS011;71313;43.514;1.500;2023-07-13T05:11:37;2.95;;;1.20;;
81864;SDS011;71313;43.514;1.500;2023-07-13T05:14:03;2.75;;;1.30;;
81864;SDS011;71313;43.514;1.500;2023-07-13T05:16:31;2.47;;;1.48;;
81864;SDS011;71313;43.514;1.500;2023-07-13T05:18:57;3.15;;;1.20;;
81864;SDS011;71313;43.514;1.500;2023-07-13T05:21:23;3.17;;;1.30;;
81864;SDS011;71313;43.514;1.500;2023-07-13T05:23:49;4.28;;;1.38;;
81864;SDS011;71313;43.514;1.500;2023-07-13T05:26:15;3.42;;;1.20;;
81864;SDS011;71313;43.514;1.500;2023-07-13T05:28:40;3.45;;;1.23;;
81864;SDS011;71313;43.514;1.500;2023-07-13T05:31:07;4.95;;;1.30;;
81864;SDS011;71313;43.514;1.500;2023-07-13T05:33:34;2.65;;;1.30;;
81864;SDS011;71313;43.514;1.500;2023-07-13T05:36:00;4.70;;;1.27;;
81864;SDS011;71313;43.514;1.500;2023-07-13T05:38:26;4.20;;;1.20;;
81864;SDS011;71313;43.514;1.500;2023-07-13T05:40:52;2.80;;;1.40;;
81864;SDS011;71313;43.514;1.500;2023-07-13T05:43:19;2.00;;;1.13;;
81864;SDS011;71313;43.514;1.500;2023-07-13T05:45:44;2.13;;;1.10;;
81864;SDS011;71313;43.514;1.500;2023-07-13T05:48:10;2.05;;;1.20;;
81864;SDS011;71313;43.514;1.500;2023-07-13T05:50:35;3.05;;;1.13;;
81864;SDS011;71313;43.514;1.500;2023-07-13T05:53:01;2.72;;;1.13;;
81864;SDS011;71313;43.514;1.500;2023-07-13T05:55:27;2.05;;;1.08;;
81864;SDS011;71313;43.514;1.500;2023-07-13T05:57:53;3.17;;;1.23;;
81864;SDS011;71313;43.514;1.500;2023-07-13T06:00:18;1.92;;;1.10;;
81864;SDS011;71313;43.514;1.500;2023-07-13T06:02:44;2.28;;;1.15;;
81864;SDS011;71313;43.514;1.500;2023-07-13T06:05:09;3.05;;;1.30;;
81864;SDS011;71313;43.514;1.500;2023-07-13T06:07:35;1.73;;;1.10;;
81864;SDS011;71313;43.514;1.500;2023-07-13T06:10:01;3.92;;;1.30;;
81864;SDS011;71313;43.514;1.500;2023-07-13T06:12:26;1.90;;;1.08;;
81864;SDS011;71313;43.514;1.500;2023-07-13T06:14:52;2.33;;;1.17;;
81864;SDS011;71313;43.514;1.500;2023-07-13T06:17:18;2.80;;;1.20;;
81864;SDS011;71313;43.514;1.500;2023-07-13T06:19:43;2.15;;;1.27;;
81864;SDS011;71313;43.514;1.500;2023-07-13T06:22:09;2.10;;;1.00;;
81864;SDS011;71313;43.514;1.500;2023-07-13T06:24:35;3.42;;;1.00;;
81864;SDS011;71313;43.514;1.500;2023-07-13T06:27:00;4.05;;;1.23;;
81864;SDS011;71313;43.514;1.500;2023-07-13T06:29:26;3.53;;;1.08;;
81864;SDS011;71313;43.514;1.500;2023-07-13T06:31:51;2.78;;;1.23;;
81864;SDS011;71313;43.514;1.500;2023-07-13T06:34:17;3.38;;;1.15;;
81864;SDS011;71313;43.514;1.500;2023-07-13T06:36:43;3.63;;;1.17;;
81864;SDS011;71313;43.514;1.500;2023-07-13T06:39:09;1.95;;;1.08;;
81864;SDS011;71313;43.514;1.500;2023-07-13T06:41:34;4.57;;;1.60;;
81864;SDS011;71313;43.514;1.500;2023-07-13T06:44:00;2.42;;;1.20;;
81864;SDS011;71313;43.514;1.500;2023-07-13T06:46:25;3.85;;;1.00;;
81864;SDS011;71313;43.514;1.500;2023-07-13T06:48:53;4.90;;;1.20;;
81864;SDS011;71313;43.514;1.500;2023-07-13T06:51:19;5.60;;;1.00;;
81864;SDS011;71313;43.514;1.500;2023-07-13T06:53:44;3.03;;;1.30;;
81864;SDS011;71313;43.514;1.500;2023-07-13T06:56:10;3.85;;;1.20;;
81864;SDS011;71313;43.514;1.500;2023-07-13T06:58:36;2.33;;;1.00;;
81864;SDS011;71313;43.514;1.500;2023-07-13T07:01:02;2.78;;;0.98;;
81864;SDS011;71313;43.514;1.500;2023-07-13T07:03:29;3.22;;;1.15;;
81864;SDS011;71313;43.514;1.500;2023-07-13T07:05:59;2.15;;;0.90;;
81864;SDS011;71313;43.514;1.500;2023-07-13T07:08:36;3.05;;;1.40;;
81864;SDS011;71313;43.514;1.500;2023-07-13T07:11:02;3.78;;;1.00;;
81864;SDS011;71313;43.514;1.500;2023-07-13T07:13:27;3.67;;;1.20;;
81864;SDS011;71313;43.514;1.500;2023-07-13T07:15:53;3.05;;;1.15;;
81864;SDS011;71313;43.514;1.500;2023-07-13T07:18:19;3.88;;;0.90;;
81864;SDS011;71313;43.514;1.500;2023-07-13T07:20:44;5.07;;;1.20;;
81864;SDS011;71313;43.514;1.500;2023-07-13T07:23:10;3.55;;;1.20;;
81864;SDS011;71313;43.514;1.500;2023-07-13T07:25:35;4.88;;;1.50;;
81864;SDS011;71313;43.514;1.500;2023-07-13T07:28:06;3.30;;;1.20;;
81864;SDS011;71313;43.514;1.500;2023-07-13T07:30:33;2.67;;;1.00;;
81864;SDS011;71313;43.514;1.500;2023-07-13T07:32:58;2.22;;;1.13;;
81864;SDS011;71313;43.514;1.500;2023-07-13T07:35:24;6.07;;;1.17;;
81864;SDS011;71313;43.514;1.500;2023-07-13T07:37:49;3.03;;;1.30;;
81864;SDS011;71313;43.514;1.500;2023-07-13T07:40:15;4.28;;;2.20;;
81864;SDS011;71313;43.514;1.500;2023-07-13T07:42:41;5.32;;;2.92;;
81864;SDS011;71313;43.514;1.500;2023-07-13T07:45:06;4.28;;;1.50;;
81864;SDS011;71313;43.514;1.500;2023-07-13T07:47:32;2.55;;;1.42;;
81864;SDS011;71313;43.514;1.500;2023-07-13T07:49:57;2.10;;;1.27;;
81864;SDS011;71313;43.514;1.500;2023-07-13T07:52:23;2.17;;;1.00;;
81864;SDS011;71313;43.514;1.500;2023-07-13T07:54:49;3.22;;;1.38;;
81864;SDS011;71313;43.514;1.500;2023-07-13T07:57:14;3.25;;;1.20;;
81864;SDS011;71313;43.514;1.500;2023-07-13T07:59:40;4.72;;;1.15;;
81864;SDS011;71313;43.514;1.500;2023-07-13T08:02:05;2.28;;;1.00;;
81864;SDS011;71313;43.514;1.500;2023-07-13T08:04:31;3.17;;;1.20;;
81864;SDS011;71313;43.514;1.500;2023-07-13T08:06:57;4.45;;;1.20;;
81864;SDS011;71313;43.514;1.500;2023-07-13T08:09:22;5.00;;;1.02;;
81864;SDS011;71313;43.514;1.500;2023-07-13T08:11:48;5.45;;;1.17;;
81864;SDS011;71313;43.514;1.500;2023-07-13T08:14:14;3.80;;;1.23;;
81864;SDS011;71313;43.514;1.500;2023-07-13T08:16:40;2.03;;;0.90;;
81864;SDS011;71313;43.514;1.500;2023-07-13T08:19:06;2.08;;;1.05;;
81864;SDS011;71313;43.514;1.500;2023-07-13T08:21:31;4.13;;;1.15;;
81864;SDS011;71313;43.514;1.500;2023-07-13T08:23:57;4.22;;;1.20;;
81864;SDS011;71313;43.514;1.500;2023-07-13T08:26:23;3.17;;;1.05;;
81864;SDS011;71313;43.514;1.500;2023-07-13T08:28:48;2.50;;;0.80;;
81864;SDS011;71313;43.514;1.500;2023-07-13T08:31:14;3.13;;;0.93;;
81864;SDS011;71313;43.514;1.500;2023-07-13T08:33:40;3.97;;;1.10;;
81864;SDS011;71313;43.514;1.500;2023-07-13T08:36:08;3.45;;;1.10;;
81864;SDS011;71313;43.514;1.500;2023-07-13T08:38:34;2.72;;;1.00;;
81864;SDS011;71313;43.514;1.500;2023-07-13T08:41:00;2.92;;;0.80;;
81864;SDS011;71313;43.514;1.500;2023-07-13T08:43:35;1.63;;;0.80;;
81864;SDS011;71313;43.514;1.500;2023-07-13T08:48:32;2.05;;;0.95;;
81864;SDS011;71313;43.514;1.500;2023-07-13T08:53:40;3.53;;;0.98;;
81864;SDS011;71313;43.514;1.500;2023-07-13T08:56:19;2.00;;;0.90;;
81864;SDS011;71313;43.514;1.500;2023-07-13T08:58:49;3.58;;;1.05;;
81864;SDS011;71313;43.514;1.500;2023-07-13T09:01:22;3.97;;;1.10;;
81864;SDS011;71313;43.514;1.500;2023-07-13T09:04:56;1.90;;;0.85;;
81864;SDS011;71313;43.514;1.500;2023-07-13T09:07:20;2.03;;;1.00;;
81864;SDS011;71313;43.514;1.500;2023-07-13T09:12:36;3.30;;;0.90;;
81864;SDS011;71313;43.514;1.500;2023-07-13T09:15:44;4.32;;;1.00;;
81864;SDS011;71313;43.514;1.500;2023-07-13T09:18:18;3.42;;;0.90;;
81864;SDS011;71313;43.514;1.500;2023-07-13T09:20:51;2.72;;;0.90;;
81864;SDS011;71313;43.514;1.500;2023-07-13T09:23:23;4.85;;;1.30;;
81864;SDS011;71313;43.514;1.500;2023-07-13T09:25:54;3.38;;;0.80;;
81864;SDS011;71313;43.514;1.500;2023-07-13T09:28:29;2.72;;;0.98;;
81864;SDS011;71313;43.514;1.500;2023-07-13T09:31:15;3.63;;;0.90;;
81864;SDS011;71313;43.514;1.500;2023-07-13T09:33:44;2.83;;;0.82;;
81864;SDS011;71313;43.514;1.500;2023-07-13T09:44:09;2.47;;;0.80;;
81864;SDS011;71313;43.514;1.500;2023-07-13T09:46:37;2.75;;;0.80;;
81864;SDS011;71313;43.514;1.500;2023-07-13T09:49:04;4.38;;;1.02;;
81864;SDS011;71313;43.514;1.500;2023-07-13T09:51:29;3.75;;;1.00;;
81864;SDS011;71313;43.514;1.500;2023-07-13T09:53:55;1.92;;;0.90;;
81864;SDS011;71313;43.514;1.500;2023-07-13T09:56:23;2.45;;;0.88;;
81864;SDS011;71313;43.514;1.500;2023-07-13T09:58:51;2.55;;;0.90;;
81864;SDS011;71313;43.514;1.500;2023-07-13T10:01:30;1.92;;;0.85;;
81864;SDS011;71313;43.514;1.500;2023-07-13T10:04:11;2.72;;;0.98;;
81864;SDS011;71313;43.514;1.500;2023-07-13T10:06:38;3.50;;;0.80;;
81864;SDS011;71313;43.514;1.500;2023-07-13T10:09:08;1.13;;;0.73;;
81864;SDS011;71313;43.514;1.500;2023-07-13T10:11:34;3.10;;;0.75;;
81864;SDS011;71313;43.514;1.500;2023-07-13T10:14:22;3.28;;;0.95;;
81864;SDS011;71313;43.514;1.500;2023-07-13T10:16:55;3.08;;;0.90;;
81864;SDS011;71313;43.514;1.500;2023-07-13T10:19:26;2.70;;;1.00;;
81864;SDS011;71313;43.514;1.500;2023-07-13T10:21:57;3.40;;;0.88;;
81864;SDS011;71313;43.514;1.500;2023-07-13T10:24:26;2.45;;;0.90;;
81864;SDS011;71313;43.514;1.500;2023-07-13T10:27:00;2.17;;;0.90;;
81864;SDS011;71313;43.514;1.500;2023-07-13T10:29:51;2.97;;;1.02;;
81864;SDS011;71313;43.514;1.500;2023-07-13T10:32:21;2.47;;;0.93;;
81864;SDS011;71313;43.514;1.500;2023-07-13T10:34:49;3.40;;;1.00;;
81864;SDS011;71313;43.514;1.500;2023-07-13T10:37:22;2.83;;;0.90;;
81864;SDS011;71313;43.514;1.500;2023-07-13T10:39:53;1.00;;;0.68;;
81864;SDS011;71313;43.514;1.500;2023-07-13T10:42:32;1.98;;;0.82;;
81864;SDS011;71313;43.514;1.500;2023-07-13T10:45:13;4.43;;;1.10;;
81864;SDS011;71313;43.514;1.500;2023-07-13T10:47:41;3.08;;;0.90;;
81864;SDS011;71313;43.514;1.500;2023-07-13T10:50:08;2.90;;;1.05;;
81864;SDS011;71313;43.514;1.500;2023-07-13T10:52:48;1.90;;;0.95;;
81864;SDS011;71313;43.514;1.500;2023-07-13T11:00:50;2.50;;;1.10;;
81864;SDS011;71313;43.514;1.500;2023-07-13T11:03:22;3.50;;;1.08;;
81864;SDS011;71313;43.514;1.500;2023-07-13T11:06:03;4.72;;;0.98;;
81864;SDS011;71313;43.514;1.500;2023-07-13T11:08:54;3.28;;;0.98;;
81864;SDS011;71313;43.514;1.500;2023-07-13T11:21:27;3.55;;;0.98;;
81864;SDS011;71313;43.514;1.500;2023-07-13T11:26:44;4.70;;;1.38;;
81864;SDS011;71313;43.514;1.500;2023-07-13T11:31:57;2.90;;;0.98;;
81864;SDS011;71313;43.514;1.500;2023-07-13T11:34:33;1.77;;;1.05;;
81864;SDS011;71313;43.514;1.500;2023-07-13T11:37:02;3.05;;;1.25;;
81864;SDS011;71313;43.514;1.500;2023-07-13T11:41:56;3.03;;;1.02;;
81864;SDS011;71313;43.514;1.500;2023-07-13T11:44:25;3.20;;;0.90;;
81864;SDS011;71313;43.514;1.500;2023-07-13T11:46:56;3.10;;;1.13;;
81864;SDS011;71313;43.514;1.500;2023-07-13T11:49:29;2.97;;;1.10;;
81864;SDS011;71313;43.514;1.500;2023-07-13T11:51:55;2.88;;;1.10;;
81864;SDS011;71313;43.514;1.500;2023-07-13T11:56:57;2.67;;;1.00;;
81864;SDS011;71313;43.514;1.500;2023-07-13T11:59:31;2.17;;;1.30;;
81864;SDS011;71313;43.514;1.500;2023-07-13T12:01:58;3.22;;;1.02;;
81864;SDS011;71313;43.514;1.500;2023-07-13T12:04:26;2.45;;;1.25;;
81864;SDS011;71313;43.514;1.500;2023-07-13T12:07:36;3.10;;;1.05;;
81864;SDS011;71313;43.514;1.500;2023-07-13T12:09:44;2.65;;;1.15;;
81864;SDS011;71313;43.514;1.500;2023-07-13T12:12:13;2.35;;;1.10;;
81864;SDS011;71313;43.514;1.500;2023-07-13T12:14:42;2.30;;;1.30;;
81864;SDS011;71313;43.514;1.500;2023-07-13T12:17:13;3.47;;;1.30;;
81864;SDS011;71313;43.514;1.500;2023-07-13T12:19:43;3.33;;;1.25;;
81864;SDS011;71313;43.514;1.500;2023-07-13T12:22:09;2.75;;;1.08;;
81864;SDS011;71313;43.514;1.500;2023-07-13T12:24:37;2.78;;;1.20;;
81864;SDS011;71313;43.514;1.500;2023-07-13T12:27:04;3.15;;;1.27;;
81864;SDS011;71313;43.514;1.500;2023-07-13T12:29:33;3.08;;;1.02;;
81864;SDS011;71313;43.514;1.500;2023-07-13T12:31:59;2.80;;;1.10;;
81864;SDS011;71313;43.514;1.500;2023-07-13T12:34:26;1.92;;;1.00;;
81864;SDS011;71313;43.514;1.500;2023-07-13T12:36:55;2.63;;;1.10;;
81864;SDS011;71313;43.514;1.500;2023-07-13T12:39:43;3.15;;;1.20;;
81864;SDS011;71313;43.514;1.500;2023-07-13T12:42:27;2.72;;;1.30;;
81864;SDS011;71313;43.514;1.500;2023-07-13T12:44:58;3.25;;;1.40;;
81864;SDS011;71313;43.514;1.500;2023-07-13T12:47:41;2.70;;;1.30;;
81864;SDS011;71313;43.514;1.500;2023-07-13T12:50:14;2.70;;;1.30;;
81864;SDS011;71313;43.514;1.500;2023-07-13T12:52:49;4.53;;;1.30;;
81864;SDS011;71313;43.514;1.500;2023-07-13T12:55:20;4.40;;;1.15;;
81864;SDS011;71313;43.514;1.500;2023-07-13T12:57:54;1.75;;;1.30;;
81864;SDS011;71313;43.514;1.500;2023-07-13T13:02:48;3.22;;;1.50;;
81864;SDS011;71313;43.514;1.500;2023-07-13T13:05:16;3.35;;;1.20;;
81864;SDS011;71313;43.514;1.500;2023-07-13T13:07:41;4.38;;;1.27;;
81864;SDS011;71313;43.514;1.500;2023-07-13T13:10:14;1.67;;;0.90;;
81864;SDS011;71313;43.514;1.500;2023-07-13T13:12:40;2.55;;;1.25;;
81864;SDS011;71313;43.514;1.500;2023-07-13T13:15:09;1.95;;;1.15;;
81864;SDS011;71313;43.514;1.500;2023-07-13T13:17:36;1.95;;;1.00;;
81864;SDS011;71313;43.514;1.500;2023-07-13T13:20:16;3.72;;;1.20;;
81864;SDS011;71313;43.514;1.500;2023-07-13T13:22:46;2.38;;;1.10;;
81864;SDS011;71313;43.514;1.500;2023-07-13T13:25:12;2.67;;;1.10;;
81864;SDS011;71313;43.514;1.500;2023-07-13T13:27:42;4.03;;;1.30;;
81864;SDS011;71313;43.514;1.500;2023-07-13T13:30:12;3.30;;;1.08;;
81864;SDS011;71313;43.514;1.500;2023-07-13T13:32:41;2.47;;;1.27;;
81864;SDS011;71313;43.514;1.500;2023-07-13T13:35:15;2.03;;;1.00;;
81864;SDS011;71313;43.514;1.500;2023-07-13T13:37:42;3.15;;;1.05;;
81864;SDS011;71313;43.514;1.500;2023-07-13T13:40:20;3.78;;;1.10;;
81864;SDS011;71313;43.514;1.500;2023-07-13T13:42:51;2.10;;;1.05;;
81864;SDS011;71313;43.514;1.500;2023-07-13T13:45:18;4.65;;;1.15;;
81864;SDS011;71313;43.514;1.500;2023-07-13T13:47:46;2.42;;;1.13;;
81864;SDS011;71313;43.514;1.500;2023-07-13T13:50:14;3.15;;;1.20;;
81864;SDS011;71313;43.514;1.500;2023-07-13T13:52:42;1.30;;;0.90;;
81864;SDS011;71313;43.514;1.500;2023-07-13T13:55:12;3.95;;;1.00;;
81864;SDS011;71313;43.514;1.500;2023-07-13T13:57:39;2.53;;;1.08;;
81864;SDS011;71313;43.514;1.500;2023-07-13T14:00:04;5.60;;;1.20;;
81864;SDS011;71313;43.514;1.500;2023-07-13T14:02:30;2.90;;;1.08;;
81864;SDS011;71313;43.514;1.500;2023-07-13T14:04:58;2.28;;;1.17;;
81864;SDS011;71313;43.514;1.500;2023-07-13T14:07:26;4.07;;;1.30;;
81864;SDS011;71313;43.514;1.500;2023-07-13T14:09:52;2.35;;;1.05;;
81864;SDS011;71313;43.514;1.500;2023-07-13T14:12:20;2.28;;;1.00;;
81864;SDS011;71313;43.514;1.500;2023-07-13T14:14:46;3.85;;;1.20;;
81864;SDS011;71313;43.514;1.500;2023-07-13T14:17:17;3.00;;;1.10;;
81864;SDS011;71313;43.514;1.500;2023-07-13T14:19:50;2.05;;;1.02;;
81864;SDS011;71313;43.514;1.500;2023-07-13T14:22:19;1.88;;;1.20;;
81864;SDS011;71313;43.514;1.500;2023-07-13T14:24:45;1.60;;;0.93;;
81864;SDS011;71313;43.514;1.500;2023-07-13T14:27:11;2.08;;;1.10;;
81864;SDS011;71313;43.514;1.500;2023-07-13T14:29:37;2.08;;;1.00;;
81864;SDS011;71313;43.514;1.500;2023-07-13T14:32:03;2.55;;;1.00;;
81864;SDS011;71313;43.514;1.500;2023-07-13T14:34:30;2.65;;;0.98;;
81864;SDS011;71313;43.514;1.500;2023-07-13T14:36:55;1.92;;;1.15;;
81864;SDS011;71313;43.514;1.500;2023-07-13T14:39:22;3.30;;;1.10;;
81864;SDS011;71313;43.514;1.500;2023-07-13T14:41:50;3.22;;;1.10;;
81864;SDS011;71313;43.514;1.500;2023-07-13T14:44:29;2.55;;;0.98;;
81864;SDS011;71313;43.514;1.500;2023-07-13T14:46:59;2.33;;;1.23;;
81864;SDS011;71313;43.514;1.500;2023-07-13T14:49:32;2.28;;;1.00;;
81864;SDS011;71313;43.514;1.500;2023-07-13T14:54:28;2.10;;;1.10;;
81864;SDS011;71313;43.514;1.500;2023-07-13T14:56:55;1.83;;;1.20;;
81864;SDS011;71313;43.514;1.500;2023-07-13T14:59:21;2.38;;;1.00;;
81864;SDS011;71313;43.514;1.500;2023-07-13T15:01:47;1.52;;;0.90;;
81864;SDS011;71313;43.514;1.500;2023-07-13T15:04:16;4.25;;;1.10;;
81864;SDS011;71313;43.514;1.500;2023-07-13T15:06:53;1.95;;;0.98;;
81864;SDS011;71313;43.514;1.500;2023-07-13T15:09:24;2.85;;;1.20;;
81864;SDS011;71313;43.514;1.500;2023-07-13T15:11:51;2.25;;;0.93;;
81864;SDS011;71313;43.514;1.500;2023-07-13T15:14:19;8.70;;;1.20;;
81864;SDS011;71313;43.514;1.500;2023-07-13T15:16:45;1.58;;;0.95;;
81864;SDS011;71313;43.514;1.500;2023-07-13T15:19:13;2.75;;;1.10;;
81864;SDS011;71313;43.514;1.500;2023-07-13T15:21:41;1.98;;;1.08;;
81864;SDS011;71313;43.514;1.500;2023-07-13T15:24:08;2.25;;;0.80;;
81864;SDS011;71313;43.514;1.500;2023-07-13T15:26:35;2.70;;;1.10;;
81864;SDS011;71313;43.514;1.500;2023-07-13T15:29:00;2.15;;;0.90;;
81864;SDS011;71313;43.514;1.500;2023-07-13T15:31:26;3.63;;;0.88;;
81864;SDS011;71313;43.514;1.500;2023-07-13T15:33:56;2.85;;;1.08;;
81864;SDS011;71313;43.514;1.500;2023-07-13T15:36:23;3.15;;;0.90;;
81864;SDS011;71313;43.514;1.500;2023-07-13T15:38:53;3.65;;;0.90;;
81864;SDS011;71313;43.514;1.500;2023-07-13T15:41:21;4.55;;;1.00;;